Language selection

Features

My Weather Profile Weather Topics  | 

James Bay - southern half: Past 24 Hour Conditions

 

Peawanuck Airport

03:00 AM CST 10 December 2019
Disclaimer

This table is a summary of hourly weather conditions for the past 24 hours.
Please note that these observations might not always be representative of weather conditions over their associated marine area.

Date / Time
(CST)
Wind(knots) Conditions Visibility(km) Pressure(kPa) Air tempC) Relative humidity(%) Dew pointC) Wind Chill
10 December 2019
3:00 W 6 Clear 16 100.9 -34 73 -37 -44
2:00 W 7 Clear 16 101.0 -33 73 -37 -45
1:00 W 6 Clear 16 101.0 -33 73 -37 -44
0:00 W 6 Clear 16 101.0 -33 74 -36 -43
09 December 2019
23:00 W 6 Clear 16 101.1 -33 74 -36 -43
22:00 W 6 Clear 16 101.1 -32 74 -35 -42
21:00 W 5 Clear 16 101.1 -32 74 -35 -41
20:00 W 5 Clear 16 101.2 -32 74 -35 -40
19:00 WSW 4 Clear 16 101.3 -32 74 -35 -40
18:00 WSW 5 Clear 16 101.3 -31 75 -34 -40
17:00 WSW 5 Clear 16 101.3 -31 74 -34 -39
16:00 SW 5 Clear 16 101.3 -29 72 -33 -38
15:00 WSW 5 Sunny 16 101.4 -28 68 -32 -36
14:00 SW 7 Sunny 16 101.4 -27 66 -32 -37
13:00 SW 10 Sunny 16 101.4 -27 66 -32 -39
12:00 WSW 7 Sunny 16 101.4 -28 67 -32 -38
11:00 SW 10 Sunny 16 101.5 -29 69 -33 -41
10:00 WSW 8 Sunny 16 101.5 -30 71 -33 -41
9:00 SW 5 Sunny 16 101.6 -31 73 -34 -39
8:00 WSW 7 Sunny 16 101.6 -31 74 -34 -41
7:00 SW 8 Clear 16 101.6 -31 74 -34 -42
6:00 SW 7 Clear 16 101.6 -31 75 -34 -41
5:00 WSW 4 Clear 16 101.6 -31 75 -34 -39
4:00 WSW 6 Clear 16 101.7 -30 74 -33 -40
3:00 WSW 7 Clear 16 101.7 -29 72 -33 -39

Zoom-in to make a selection

Map of Hudson - Hudson Bay marine weather areas Arviat Airport Baker Lake Airport Chesterfield Inlet Airport Coral Harbour Airport Rankin Inlet Airport Sanikiluaq Airport Whale Cove Airport Cape Dorset Airport Iqaluit Airport Wager Bay Kimmirut Airport Churchill Airport Fort Severn Airport Peawanuck Airport Moosonee Airport Eastmain Airport La Grande Rivière Airport Waskaganish Airport Wemindji Airport Akulivik Airport Inukjuak Airport Ivujivik Airport Kuujjuarapik Airport Puvirnituq Airport Umiujaq Airport Aupaluk Airport Kangiqsujuaq Airport Kangirsuk Airport Kangiqsualujjuaq Airport Kuujjuaq Airport Quaqtaq Airport Salluit Airport Tasiujaq Airport Cape Kakkiviak
Legend:
buoy Buoy
land station Land Station

Hudson - Hudson Bay Area

Another Region

What we are doing

Date modified: